createdAt,value
2022-08-09T00:01:57.499Z,16.70
2022-08-09T00:04:34.571Z,16.60
2022-08-09T00:07:07.810Z,16.60
2022-08-09T00:09:40.858Z,16.60
2022-08-09T00:12:15.573Z,16.60
2022-08-09T00:14:56.737Z,16.60
2022-08-09T00:18:05.624Z,16.60
2022-08-09T00:20:22.342Z,16.50
2022-08-09T00:22:54.061Z,16.60
2022-08-09T00:25:32.859Z,16.50
2022-08-09T00:28:04.076Z,16.50
2022-08-09T00:30:34.715Z,16.50
2022-08-09T00:33:06.348Z,16.50
2022-08-09T00:35:42.821Z,16.50
2022-08-09T00:38:13.402Z,16.50
2022-08-09T00:40:51.548Z,16.50
2022-08-09T00:44:13.638Z,16.50
2022-08-09T00:46:28.275Z,16.50
2022-08-09T00:49:04.522Z,16.50
2022-08-09T00:51:54.210Z,16.50
2022-08-09T00:54:35.096Z,16.50
2022-08-09T00:57:10.656Z,16.40
2022-08-09T00:59:46.468Z,16.40
2022-08-09T01:02:17.866Z,16.30
2022-08-09T01:04:55.461Z,16.20
2022-08-09T01:07:38.113Z,16.20
2022-08-09T01:10:25.955Z,16.10
2022-08-09T01:13:01.410Z,16.10
2022-08-09T01:15:33.122Z,16.00
2022-08-09T01:18:14.251Z,16.00
2022-08-09T01:20:51.697Z,15.90
2022-08-09T01:24:03.597Z,15.90
2022-08-09T01:26:24.714Z,15.80
2022-08-09T01:28:58.300Z,15.80
2022-08-09T01:32:31.624Z,15.70
2022-08-09T01:34:20.624Z,15.70
2022-08-09T01:36:51.857Z,15.70
2022-08-09T01:39:23.507Z,15.60
2022-08-09T01:41:59.842Z,15.60
2022-08-09T01:44:33.598Z,15.60
2022-08-09T01:47:04.542Z,15.60
2022-08-09T01:49:38.776Z,15.50
2022-08-09T01:52:11.533Z,15.50
2022-08-09T01:54:47.012Z,15.50
2022-08-09T01:57:20.502Z,15.50
2022-08-09T01:59:59.986Z,15.50
2022-08-09T02:02:32.515Z,15.50
2022-08-09T02:05:05.644Z,15.50
2022-08-09T02:08:39.386Z,15.40
2022-08-09T02:10:42.869Z,15.40
2022-08-09T02:13:21.981Z,15.40
2022-08-09T02:16:00.769Z,15.40
2022-08-09T02:18:31.707Z,15.40
2022-08-09T02:21:05.690Z,15.30
2022-08-09T02:23:40.058Z,15.30
2022-08-09T02:26:25.180Z,15.40
2022-08-09T02:28:59.674Z,15.30
2022-08-09T02:31:35.669Z,15.30
2022-08-09T02:34:13.228Z,15.30
2022-08-09T02:36:45.238Z,15.40
2022-08-09T02:39:33.944Z,15.30
2022-08-09T02:42:13.908Z,15.30
2022-08-09T02:44:49.385Z,15.30
2022-08-09T02:47:22.339Z,15.30
2022-08-09T02:50:02.093Z,15.30
2022-08-09T02:52:37.348Z,15.30
2022-08-09T02:55:20.237Z,15.30
2022-08-09T02:58:00.376Z,15.30
2022-08-09T03:00:47.994Z,15.30
2022-08-09T03:03:37.284Z,15.20
2022-08-09T03:06:21.508Z,15.30
2022-08-09T03:08:53.265Z,15.20
2022-08-09T03:11:29.734Z,15.20
2022-08-09T03:14:14.359Z,15.20
2022-08-09T03:16:48.264Z,15.20
2022-08-09T03:19:52.005Z,15.20
2022-08-09T03:22:24.952Z,15.10
2022-08-09T03:25:06.211Z,15.10
2022-08-09T03:27:51.344Z,15.20
2022-08-09T03:30:29.781Z,15.20
2022-08-09T03:33:12.655Z,15.20
2022-08-09T03:36:12.453Z,15.10
2022-08-09T03:38:41.934Z,15.10
2022-08-09T03:41:14.753Z,15.00
2022-08-09T03:44:02.784Z,15.00
2022-08-09T03:46:34.347Z,15.00
2022-08-09T03:49:08.000Z,15.00
2022-08-09T03:51:56.910Z,15.00
2022-08-09T03:54:31.743Z,15.00
2022-08-09T03:57:04.243Z,15.00
2022-08-09T03:59:53.178Z,15.00
2022-08-09T04:02:30.017Z,15.00
2022-08-09T04:05:00.744Z,14.90
2022-08-09T04:07:47.776Z,15.00
2022-08-09T04:10:29.195Z,14.90
2022-08-09T04:13:01.042Z,14.90
2022-08-09T04:16:18.044Z,14.90
2022-08-09T04:18:24.886Z,14.90
2022-08-09T04:20:54.875Z,14.90
2022-08-09T04:23:26.051Z,14.90
2022-08-09T04:25:56.048Z,14.90
2022-08-09T04:31:54.205Z,14.90
2022-08-09T04:34:31.854Z,14.90
2022-08-09T04:37:01.819Z,14.90
2022-08-09T04:39:33.883Z,14.90
2022-08-09T04:42:10.276Z,14.90
2022-08-09T04:44:49.328Z,14.90
2022-08-09T04:47:19.181Z,14.90
2022-08-09T04:49:54.616Z,14.90
2022-08-09T04:52:32.058Z,14.90
2022-08-09T04:55:04.254Z,14.90
2022-08-09T04:57:54.189Z,14.80
2022-08-09T05:00:31.655Z,14.80
2022-08-09T05:03:12.943Z,14.80
2022-08-09T05:06:06.595Z,14.80
2022-08-09T05:08:36.864Z,14.80
2022-08-09T05:11:09.650Z,14.80
2022-08-09T05:13:39.316Z,14.70
2022-08-09T05:16:10.086Z,14.70
2022-08-09T05:18:57.631Z,14.70
2022-08-09T05:21:29.934Z,14.70
2022-08-09T05:24:02.418Z,14.60
2022-08-09T05:26:46.220Z,14.60
2022-08-09T05:29:21.721Z,14.60
2022-08-09T05:31:57.691Z,14.60
2022-08-09T05:34:30.773Z,14.50
2022-08-09T05:37:02.388Z,14.60
2022-08-09T05:39:36.119Z,14.50
2022-08-09T05:42:17.758Z,14.50
2022-08-09T05:44:52.494Z,14.40
2022-08-09T05:47:22.604Z,14.40
2022-08-09T05:50:26.838Z,14.40
2022-08-09T05:52:42.764Z,14.40
2022-08-09T05:55:20.409Z,14.30
2022-08-09T05:57:56.639Z,14.30
2022-08-09T06:00:28.963Z,14.30
2022-08-09T06:02:59.167Z,14.30
2022-08-09T06:05:50.499Z,14.30
2022-08-09T06:08:19.558Z,14.30
2022-08-09T06:10:54.552Z,14.30
2022-08-09T06:13:25.956Z,14.30
2022-08-09T06:15:58.223Z,14.30
2022-08-09T06:18:31.324Z,14.30
2022-08-09T06:21:00.774Z,14.30
2022-08-09T06:23:57.715Z,14.30
2022-08-09T06:26:22.176Z,14.30
2022-08-09T06:29:01.040Z,14.30
2022-08-09T06:31:39.215Z,14.30
2022-08-09T06:34:26.045Z,14.40
2022-08-09T06:37:00.144Z,14.30
2022-08-09T06:39:49.238Z,14.30
2022-08-09T06:42:24.924Z,14.30
2022-08-09T06:45:00.258Z,14.30
2022-08-09T06:47:39.706Z,14.30
2022-08-09T06:50:16.602Z,14.30
2022-08-09T06:52:49.090Z,14.30
2022-08-09T06:55:22.456Z,14.30
2022-08-09T06:58:02.447Z,14.30
2022-08-09T07:00:55.141Z,14.30
2022-08-09T07:03:27.685Z,14.30
2022-08-09T07:06:03.654Z,14.20
2022-08-09T07:08:35.304Z,14.20
2022-08-09T07:11:07.277Z,14.20
2022-08-09T07:13:45.389Z,14.20
2022-08-09T07:16:43.014Z,14.30
2022-08-09T07:19:18.666Z,14.30
2022-08-09T07:21:57.355Z,14.30
2022-08-09T07:24:32.214Z,14.30
2022-08-09T07:27:11.080Z,14.30
2022-08-09T07:29:57.107Z,14.30
2022-08-09T07:32:33.035Z,14.20
2022-08-09T07:35:10.804Z,14.20
2022-08-09T07:37:44.126Z,14.30
2022-08-09T07:40:17.520Z,14.30
2022-08-09T07:42:55.976Z,14.30
2022-08-09T07:45:37.018Z,14.30
2022-08-09T07:48:22.385Z,14.30
2022-08-09T07:51:09.506Z,14.30
2022-08-09T07:54:04.975Z,14.30
2022-08-09T07:56:38.914Z,14.30
2022-08-09T07:59:25.439Z,14.30
2022-08-09T08:02:05.042Z,14.30
2022-08-09T08:04:37.355Z,14.30
2022-08-09T08:07:15.173Z,14.30
2022-08-09T08:10:07.964Z,14.30
2022-08-09T08:12:43.080Z,14.20
2022-08-09T08:15:14.236Z,14.20
2022-08-09T08:17:53.175Z,14.20
2022-08-09T08:20:30.647Z,14.30
2022-08-09T08:23:06.595Z,14.30
2022-08-09T08:25:49.907Z,14.40
2022-08-09T08:28:32.043Z,14.30
2022-08-09T08:31:08.947Z,14.30
2022-08-09T08:33:53.899Z,14.40
2022-08-09T08:36:28.663Z,14.40
2022-08-09T08:39:00.170Z,14.40
2022-08-09T08:41:50.196Z,14.40
2022-08-09T08:44:22.941Z,14.40
2022-08-09T08:47:02.296Z,14.40
2022-08-09T08:49:46.851Z,14.40
2022-08-09T08:52:52.718Z,14.40
2022-08-09T08:55:10.694Z,14.40
2022-08-09T08:57:43.068Z,14.40
2022-08-09T09:00:27.517Z,14.40
2022-08-09T09:03:12.120Z,14.40
2022-08-09T09:05:59.855Z,14.40
2022-08-09T09:08:37.870Z,14.40
2022-08-09T09:11:13.418Z,14.40
2022-08-09T09:13:56.199Z,14.40
2022-08-09T09:16:33.775Z,14.40
2022-08-09T09:22:11.820Z,14.40
2022-08-09T09:24:45.108Z,14.40
2022-08-09T09:28:03.035Z,14.40
2022-08-09T09:30:28.799Z,14.40
2022-08-09T09:33:15.757Z,14.40
2022-08-09T09:36:01.896Z,14.40
2022-08-09T09:38:43.030Z,14.50
2022-08-09T09:41:14.767Z,14.50
2022-08-09T09:44:12.961Z,14.50
2022-08-09T09:46:51.710Z,14.50
2022-08-09T09:49:31.795Z,14.50
2022-08-09T09:52:33.459Z,14.50
2022-08-09T09:55:16.266Z,14.50
2022-08-09T09:58:19.316Z,14.60
2022-08-09T10:00:54.441Z,14.60
2022-08-09T10:03:57.271Z,14.60
2022-08-09T10:06:32.228Z,14.60
2022-08-09T10:09:11.566Z,14.60
2022-08-09T10:12:07.805Z,14.60
2022-08-09T10:14:48.612Z,14.60
2022-08-09T10:17:54.875Z,14.70
2022-08-09T10:20:35.406Z,14.70
2022-08-09T10:23:17.282Z,14.70
2022-08-09T10:26:06.034Z,14.70
2022-08-09T10:28:39.053Z,14.70
2022-08-09T10:32:27.837Z,14.70
2022-08-09T10:34:18.967Z,14.80
2022-08-09T10:36:57.387Z,14.80
2022-08-09T10:39:28.645Z,14.80
2022-08-09T10:41:58.522Z,14.90
2022-08-09T10:44:31.728Z,14.90
2022-08-09T10:48:12.113Z,14.90
2022-08-09T10:50:06.264Z,15.00
2022-08-09T10:52:50.835Z,15.00
2022-08-09T10:55:24.533Z,15.00
2022-08-09T10:57:55.661Z,15.00
2022-08-09T11:00:35.442Z,15.00
2022-08-09T11:03:27.491Z,15.00
2022-08-09T11:06:15.789Z,15.10
2022-08-09T11:08:47.753Z,15.10
2022-08-09T11:11:17.821Z,15.10
2022-08-09T11:13:51.380Z,15.10
2022-08-09T11:16:40.999Z,15.20
2022-08-09T11:19:12.472Z,15.20
2022-08-09T11:22:05.376Z,15.20
2022-08-09T11:25:09.837Z,15.30
2022-08-09T11:28:02.855Z,15.30
2022-08-09T11:30:36.383Z,15.30
2022-08-09T11:33:06.991Z,15.30
2022-08-09T11:35:49.559Z,15.40
2022-08-09T11:38:21.843Z,15.40
2022-08-09T11:40:54.948Z,15.40
2022-08-09T11:43:41.061Z,15.50
2022-08-09T11:46:11.026Z,15.40
2022-08-09T11:48:50.334Z,15.50
2022-08-09T11:52:54.108Z,15.50
2022-08-09T11:54:27.927Z,15.50
2022-08-09T11:57:46.822Z,15.50
2022-08-09T12:00:16.356Z,15.60
2022-08-09T12:02:52.720Z,15.70
2022-08-09T12:05:23.459Z,15.80
2022-08-09T12:07:55.626Z,15.80
2022-08-09T12:10:39.239Z,15.90
2022-08-09T12:14:09.439Z,16.00
2022-08-09T12:16:01.760Z,16.10
2022-08-09T12:18:33.663Z,16.20
2022-08-09T12:21:26.225Z,16.30
2022-08-09T12:24:08.957Z,16.30
2022-08-09T12:26:40.403Z,16.40
2022-08-09T12:29:33.577Z,16.40
2022-08-09T12:32:03.745Z,16.50
2022-08-09T12:34:36.881Z,16.50
2022-08-09T12:37:22.184Z,16.50
2022-08-09T12:40:05.949Z,16.50
2022-08-09T12:42:35.821Z,16.60
2022-08-09T12:45:32.373Z,16.70
2022-08-09T12:48:00.155Z,16.80
2022-08-09T12:50:30.882Z,17.00
2022-08-09T12:53:17.716Z,17.10
2022-08-09T12:56:14.199Z,17.30
2022-08-09T12:58:42.711Z,17.40
2022-08-09T13:01:23.729Z,17.50
2022-08-09T13:04:03.760Z,17.50
2022-08-09T13:06:35.708Z,17.50
2022-08-09T13:09:08.819Z,17.60
2022-08-09T13:11:42.262Z,17.60
2022-08-09T13:14:41.991Z,17.70
2022-08-09T13:17:03.338Z,17.80
2022-08-09T13:20:09.068Z,18.10
2022-08-09T13:22:38.317Z,18.10
2022-08-09T13:25:14.223Z,18.40
2022-08-09T13:27:54.471Z,18.50
2022-08-09T13:30:50.574Z,18.60
2022-08-09T13:33:24.013Z,18.60
2022-08-09T13:36:38.603Z,18.80
2022-08-09T13:38:55.407Z,18.80
2022-08-09T13:41:57.183Z,18.80
2022-08-09T13:44:17.613Z,18.80
2022-08-09T13:47:28.788Z,18.80
2022-08-09T13:49:51.534Z,18.60
2022-08-09T13:52:27.536Z,18.50
2022-08-09T13:55:00.978Z,18.40
2022-08-09T13:57:39.763Z,18.10
2022-08-09T14:00:13.820Z,18.00
2022-08-09T14:03:02.858Z,18.00
2022-08-09T14:06:00.433Z,18.00
2022-08-09T14:08:26.833Z,18.10
2022-08-09T14:10:57.653Z,18.20
2022-08-09T14:14:16.478Z,18.40
2022-08-09T14:16:28.344Z,18.60
2022-08-09T14:18:59.409Z,18.80
2022-08-09T14:21:32.015Z,18.70
2022-08-09T14:24:10.065Z,18.80
2022-08-09T14:26:40.239Z,18.80
2022-08-09T14:29:25.464Z,18.80
2022-08-09T14:32:11.259Z,18.90
2022-08-09T14:34:42.851Z,18.80
2022-08-09T14:37:12.564Z,18.80
2022-08-09T14:39:46.634Z,18.90
2022-08-09T14:42:30.110Z,19.10
2022-08-09T14:46:38.791Z,19.20
2022-08-09T14:47:58.070Z,19.50
2022-08-09T14:50:30.542Z,19.80
2022-08-09T14:53:00.912Z,19.80
2022-08-09T14:55:32.565Z,20.10
2022-08-09T14:58:03.606Z,20.20
2022-08-09T15:00:36.101Z,20.20
2022-08-09T15:03:08.997Z,20.40
2022-08-09T15:05:50.225Z,20.40
2022-08-09T15:08:23.973Z,20.50
2022-08-09T15:11:00.542Z,20.40
2022-08-09T15:13:56.370Z,20.40
2022-08-09T15:16:30.489Z,20.20
2022-08-09T15:19:05.856Z,19.60
2022-08-09T15:21:58.960Z,19.30
2022-08-09T15:24:31.775Z,19.00
2022-08-09T15:27:01.538Z,19.00
2022-08-09T15:30:59.470Z,19.10
2022-08-09T15:32:29.118Z,19.20
2022-08-09T15:35:40.184Z,19.10
2022-08-09T15:38:11.140Z,19.00
2022-08-09T15:40:44.428Z,18.90
2022-08-09T15:43:14.259Z,19.10
2022-08-09T15:46:07.662Z,19.10
2022-08-09T15:48:34.754Z,19.10
2022-08-09T15:51:30.364Z,19.20
2022-08-09T15:54:07.422Z,19.20
2022-08-09T15:56:41.790Z,19.00
2022-08-09T15:59:14.231Z,19.00
2022-08-09T16:01:43.792Z,19.00
2022-08-09T16:04:13.755Z,19.00
2022-08-09T16:06:50.577Z,19.00
2022-08-09T16:09:32.556Z,19.10
2022-08-09T16:12:11.586Z,19.20
2022-08-09T16:14:41.278Z,19.40
2022-08-09T16:17:12.147Z,19.70
2022-08-09T16:19:49.530Z,19.80
2022-08-09T16:22:35.615Z,20.00
2022-08-09T16:25:05.986Z,20.30
2022-08-09T16:27:36.251Z,20.40
2022-08-09T16:30:06.429Z,20.50
2022-08-09T16:32:54.494Z,20.70
2022-08-09T16:35:56.926Z,20.80
2022-08-09T16:38:17.904Z,20.90
2022-08-09T16:40:48.751Z,20.90
2022-08-09T16:43:18.521Z,21.00
2022-08-09T16:45:53.675Z,21.00
2022-08-09T16:48:39.649Z,21.20
2022-08-09T16:51:14.483Z,21.20
2022-08-09T17:00:02.868Z,21.70
2022-08-09T17:02:36.094Z,21.80
2022-08-09T17:05:05.930Z,22.30
2022-08-09T17:08:43.523Z,22.50
2022-08-09T17:10:29.617Z,22.50
2022-08-09T17:12:59.641Z,22.60
2022-08-09T17:15:30.979Z,22.40
2022-08-09T17:18:27.051Z,22.40
2022-08-09T17:20:59.704Z,22.70
2022-08-09T17:23:37.152Z,22.70
2022-08-09T17:26:31.461Z,22.50
2022-08-09T17:29:11.638Z,22.10
2022-08-09T17:31:50.119Z,21.80
2022-08-09T17:35:02.079Z,21.40
2022-08-09T17:37:19.603Z,21.10
2022-08-09T17:39:52.527Z,20.80
2022-08-09T17:42:55.236Z,20.50
2022-08-09T17:45:23.666Z,20.30
2022-08-09T17:48:02.831Z,20.00
2022-08-09T17:50:37.136Z,19.80
2022-08-09T17:53:19.688Z,19.60
2022-08-09T17:55:56.967Z,19.50
2022-08-09T17:58:30.590Z,19.40
2022-08-09T18:01:02.263Z,19.30
2022-08-09T18:03:32.040Z,19.20
2022-08-09T18:06:01.912Z,19.20
2022-08-09T18:08:31.514Z,19.20
2022-08-09T18:11:02.721Z,19.20
2022-08-09T18:13:43.118Z,19.20
2022-08-09T18:16:29.337Z,19.20
2022-08-09T18:19:04.056Z,19.20
2022-08-09T18:21:41.590Z,19.20
2022-08-09T18:24:14.450Z,19.30
2022-08-09T18:26:48.075Z,19.30
2022-08-09T18:30:35.097Z,19.30
2022-08-09T18:32:11.037Z,19.30
2022-08-09T18:34:40.762Z,19.30
2022-08-09T18:37:48.047Z,19.30
2022-08-09T18:40:00.099Z,19.30
2022-08-09T18:42:29.940Z,19.30
2022-08-09T18:45:01.619Z,19.40
2022-08-09T18:47:38.417Z,19.40
2022-08-09T18:50:09.149Z,19.50
2022-08-09T18:52:43.131Z,19.60
2022-08-09T18:55:14.289Z,19.70
2022-08-09T18:57:58.722Z,19.80
2022-08-09T19:00:29.887Z,19.90
2022-08-09T19:03:00.574Z,20.00
2022-08-09T19:06:03.091Z,20.10
2022-08-09T19:08:20.122Z,20.20
2022-08-09T19:10:50.703Z,20.20
2022-08-09T19:13:23.453Z,20.20
2022-08-09T19:16:10.218Z,20.20
2022-08-09T19:18:45.622Z,20.20
2022-08-09T19:21:15.675Z,20.30
2022-08-09T19:24:32.843Z,20.30
2022-08-09T19:26:39.030Z,20.30
2022-08-09T19:29:18.211Z,20.30
2022-08-09T19:31:52.275Z,20.20
2022-08-09T19:34:29.806Z,20.10
2022-08-09T19:36:59.835Z,20.00
2022-08-09T19:40:02.526Z,19.90
2022-08-09T19:42:19.935Z,19.90
2022-08-09T19:44:57.854Z,20.00
2022-08-09T19:47:29.002Z,20.00
2022-08-09T19:50:08.598Z,20.00
2022-08-09T19:52:51.804Z,20.00
2022-08-09T19:55:30.479Z,20.00
2022-08-09T19:58:16.392Z,20.00
2022-08-09T20:00:54.552Z,20.10
2022-08-09T20:04:17.840Z,20.00
2022-08-09T20:06:32.118Z,20.00
2022-08-09T20:09:07.992Z,20.10
2022-08-09T20:12:06.779Z,20.10
2022-08-09T20:14:53.249Z,20.20
2022-08-09T20:17:25.060Z,20.30
2022-08-09T20:20:02.299Z,20.60
2022-08-09T20:22:35.763Z,20.80
2022-08-09T20:25:08.193Z,20.90
2022-08-09T20:27:40.397Z,21.00
2022-08-09T20:30:10.434Z,21.00
2022-08-09T20:32:40.318Z,21.20
2022-08-09T20:35:12.590Z,21.30
2022-08-09T20:38:21.017Z,21.40
2022-08-09T20:40:35.426Z,21.40
2022-08-09T20:43:18.519Z,21.50
2022-08-09T20:46:00.492Z,21.50
2022-08-09T20:48:45.376Z,21.50
2022-08-09T20:51:19.588Z,21.60
2022-08-09T20:53:49.712Z,21.70
2022-08-09T20:56:22.037Z,21.70
2022-08-09T20:58:58.758Z,21.70
2022-08-09T21:01:35.010Z,21.70
2022-08-09T21:05:54.620Z,21.50
2022-08-09T21:07:14.033Z,21.40
2022-08-09T21:09:46.110Z,21.30
2022-08-09T21:15:16.098Z,20.90
2022-08-09T21:18:22.112Z,20.80
2022-08-09T21:20:36.696Z,20.60
2022-08-09T21:23:13.044Z,20.30
2022-08-09T21:25:59.330Z,20.00
2022-08-09T21:28:34.436Z,19.70
2022-08-09T21:31:16.417Z,19.50
2022-08-09T21:33:53.190Z,19.20
2022-08-09T21:36:29.165Z,19.10
2022-08-09T21:39:01.625Z,18.90
2022-08-09T21:42:05.400Z,18.70
2022-08-09T21:44:33.308Z,18.60
2022-08-09T21:47:05.728Z,18.40
2022-08-09T21:49:43.405Z,18.30
2022-08-09T21:52:14.650Z,18.20
2022-08-09T21:54:49.453Z,18.20
2022-08-09T21:57:25.513Z,18.10
2022-08-09T22:00:09.077Z,18.10
2022-08-09T22:02:40.108Z,18.00
2022-08-09T22:05:23.051Z,18.00
2022-08-09T22:07:54.211Z,17.90
2022-08-09T22:10:25.553Z,17.90
2022-08-09T22:12:57.174Z,17.80
2022-08-09T22:15:35.165Z,17.70
2022-08-09T22:18:12.065Z,17.70
2022-08-09T22:20:42.174Z,17.70
2022-08-09T22:23:13.296Z,17.70
2022-08-09T22:26:08.197Z,17.70
2022-08-09T22:28:35.342Z,17.70
2022-08-09T22:31:13.089Z,17.70
2022-08-09T22:33:49.006Z,17.70
2022-08-09T22:36:25.477Z,17.70
2022-08-09T22:38:54.941Z,17.80
2022-08-09T22:41:28.463Z,17.80
2022-08-09T22:44:01.597Z,17.80
2022-08-09T22:48:11.990Z,17.80
2022-08-09T22:49:25.253Z,17.80
2022-08-09T22:51:58.907Z,17.80
2022-08-09T22:54:29.747Z,17.90
2022-08-09T22:57:01.967Z,17.90
2022-08-09T22:59:55.978Z,17.90
2022-08-09T23:02:21.604Z,17.90
2022-08-09T23:04:55.396Z,17.80
2022-08-09T23:08:27.692Z,17.80
2022-08-09T23:10:38.159Z,17.70
2022-08-09T23:13:12.931Z,17.70
2022-08-09T23:15:43.305Z,17.70
2022-08-09T23:18:32.261Z,17.70
2022-08-09T23:21:03.228Z,17.70
2022-08-09T23:23:34.364Z,17.60
2022-08-09T23:26:04.637Z,17.60
2022-08-09T23:28:35.807Z,17.60
2022-08-09T23:31:06.191Z,17.60
2022-08-09T23:33:36.360Z,17.60
2022-08-09T23:36:07.610Z,17.60
2022-08-09T23:38:48.228Z,17.50
2022-08-09T23:41:28.243Z,17.50
2022-08-09T23:44:01.192Z,17.50
2022-08-09T23:46:31.748Z,17.50
2022-08-09T23:49:02.867Z,17.40
2022-08-09T23:51:32.831Z,17.40
2022-08-09T23:54:03.421Z,17.30
2022-08-09T23:56:52.508Z,17.30
2022-08-09T23:59:47.635Z,17.30
